Greybrook Lake, Indiana
Current Conditions -  °F | °C
As of 4:15 AM on Monday 24 Nov 2014 (Local Time) from K4I7 Reporting Station
Light Rain Light Rain  
Wind Chill: 54°   Ceiling: 700
Heat Index: 54°   Visibility: 5mi
Dew Point: 54°   Wind: 5mph
Humidity: 100%   Direction: 200°SSW
Pressure: 29.21"   Gusts: NA
Location:  39.4501°N, 86.975°W
Report Text: K4I7 240915Z AUTO 20004KT 5SM -RA BKN007 OVC011 12/12 A2921 RMK AO2 P0001
Loading
Personal Weather Stations






























Interactive Weather Map New forecast layout! Learn more

10-Day Weather Forecast

Advertisements
Track Severe Weather on mobile